Time;durP1;ratioP1;P1;durP2;ratioP2;P2;SDS_P1;SDS_P2;PMS_P1;PMS_P2;Temp;Humidity;BMP_temperature;BMP_pressure;BME280_temperature;BME280_humidity;BME280_pressure;Samples;Min_cycle;Max_cycle;Signal;HPM_P1;HPM_P2
2021/12/26 00:00:28;;;;;;;35.30;10.75;;;;;;;1.28;100.00;94485.94;5103173;27;20560;-78
2021/12/26 00:03:05;;;;;;;40.03;11.02;;;;;;;1.39;100.00;94492.84;5100787;28;20046;-78
2021/12/26 00:05:30;;;;;;;31.90;10.75;;;;;;;1.39;100.00;94482.47;5089803;28;20122;-78
2021/12/26 00:07:56;;;;;;;35.22;10.90;;;;;;;1.28;100.00;94475.56;5099732;27;20054;-78
2021/12/26 00:10:23;;;;;;;34.53;11.45;;;;;;;1.31;100.00;94475.13;5110348;27;20470;-78
2021/12/26 00:12:49;;;;;;;37.50;11.60;;;;;;;1.23;100.00;94483.28;5070944;28;20032;-78
2021/12/26 00:15:16;;;;;;;36.67;11.57;;;;;;;1.27;100.00;94479.22;5088582;28;20062;-78
2021/12/26 00:17:41;;;;;;;34.70;11.23;;;;;;;1.25;100.00;94481.22;5101996;27;20467;-77
2021/12/26 00:20:10;;;;;;;32.08;10.25;;;;;;;1.28;100.00;94485.94;5103266;27;20512;-77
2021/12/26 00:22:36;;;;;;;31.63;10.07;;;;;;;1.28;100.00;94486.75;5096683;28;20090;-78
2021/12/26 00:25:02;;;;;;;32.58;11.20;;;;;;;1.14;100.00;94485.47;5101881;28;20048;-77
2021/12/26 00:27:28;;;;;;;31.48;10.73;;;;;;;1.14;100.00;94490.66;5094748;28;20043;-78
2021/12/26 00:29:53;;;;;;;33.30;11.25;;;;;;;1.22;100.00;94485.06;5125024;28;20415;-78
2021/12/26 00:32:19;;;;;;;39.13;11.50;;;;;;;1.19;100.00;94486.34;5114923;28;20059;-78
2021/12/26 00:34:45;;;;;;;33.75;11.45;;;;;;;1.23;100.00;94489.25;5099084;28;20089;-78
2021/12/26 00:37:11;;;;;;;39.20;11.00;;;;;;;1.30;100.00;94484.69;5104017;28;20043;-78
2021/12/26 00:39:38;;;;;;;32.97;10.30;;;;;;;1.17;100.00;94490.97;5114599;28;20039;-78
2021/12/26 00:42:06;;;;;;;38.85;12.40;;;;;;;1.08;100.00;94482.03;5101663;28;20085;-77
2021/12/26 00:44:34;;;;;;;38.60;11.88;;;;;;;1.24;100.00;94482.28;5095387;28;20040;-77
2021/12/26 00:47:00;;;;;;;37.03;11.65;;;;;;;1.20;100.00;94485.31;5105475;28;20102;-78
2021/12/26 00:49:25;;;;;;;40.92;12.40;;;;;;;1.17;100.00;94483.19;5118713;28;20041;-77
2021/12/26 00:51:51;;;;;;;39.55;12.52;;;;;;;1.14;100.00;94488.84;5103940;28;20036;-78
2021/12/26 00:54:17;;;;;;;42.10;12.57;;;;;;;1.19;100.00;94488.94;5106325;28;20094;-78
2021/12/26 00:56:43;;;;;;;45.15;12.30;;;;;;;1.24;100.00;94490.81;5082120;28;20075;-78
2021/12/26 00:59:09;;;;;;;50.00;14.30;;;;;;;1.17;100.00;94492.78;5095673;28;20036;-78
2021/12/26 01:01:35;;;;;;;47.00;12.85;;;;;;;1.14;100.00;94491.44;5111904;28;20511;-78
2021/12/26 01:04:01;;;;;;;59.63;13.38;;;;;;;1.13;100.00;94489.88;5100496;28;20066;-78
2021/12/26 01:06:28;;;;;;;53.50;13.75;;;;;;;1.11;100.00;94486.72;5107424;28;20044;-78
2021/12/26 01:08:54;;;;;;;81.50;15.85;;;;;;;1.09;100.00;94488.75;5106510;27;20047;-78
2021/12/26 01:11:35;;;;;;;54.70;14.45;;;;;;;1.14;100.00;94491.44;5116032;27;20043;-78
2021/12/26 01:14:04;;;;;;;61.00;14.98;;;;;;;1.17;100.00;94493.56;5100769;28;20032;-78
2021/12/26 01:16:31;;;;;;;51.70;13.38;;;;;;;1.24;100.00;94496.00;5096488;28;20051;-78
2021/12/26 01:19:05;;;;;;;49.80;13.40;;;;;;;1.33;100.00;94499.00;5114206;27;20640;-78
2021/12/26 01:21:31;;;;;;;72.78;14.65;;;;;;;1.16;100.00;94493.78;5112537;27;20093;-78
2021/12/26 01:24:01;;;;;;;62.38;13.98;;;;;;;1.13;100.00;94494.28;5082571;28;20044;-79
2021/12/26 01:26:29;;;;;;;62.45;14.27;;;;;;;1.15;100.00;94492.22;5098001;28;20101;-78
2021/12/26 01:28:55;;;;;;;58.28;14.20;;;;;;;1.16;100.00;94491.97;5112845;27;20104;-78
2021/12/26 01:31:21;;;;;;;59.08;14.60;;;;;;;1.23;100.00;94493.66;5097798;28;20047;-78
2021/12/26 01:33:50;;;;;;;60.53;16.13;;;;;;;1.25;100.00;94496.78;5085012;28;20047;-78
2021/12/26 01:36:16;;;;;;;77.53;16.50;;;;;;;1.19;100.00;94499.31;5093523;28;20040;-78
2021/12/26 01:38:42;;;;;;;71.28;16.17;;;;;;;1.21;100.00;94499.84;5107647;27;20040;-78
2021/12/26 01:41:11;;;;;;;74.68;15.35;;;;;;;1.27;100.00;94500.72;5109313;27;20075;-77
2021/12/26 01:43:40;;;;;;;60.70;16.10;;;;;;;1.29;100.00;94509.03;5100970;28;20040;-78
2021/12/26 01:46:06;;;;;;;79.60;16.52;;;;;;;1.27;100.00;94505.91;5111278;28;20043;-78
2021/12/26 01:48:32;;;;;;;87.45;17.05;;;;;;;1.25;100.00;94496.78;5108212;27;20085;-78
2021/12/26 01:50:58;;;;;;;67.47;15.10;;;;;;;1.30;100.00;94509.84;5104165;27;20043;-78
2021/12/26 01:53:29;;;;;;;54.38;14.98;;;;;;;1.28;100.00;94502.28;5102118;28;20032;-78
2021/12/26 01:55:55;;;;;;;75.97;17.08;;;;;;;1.29;100.00;94498.66;5091322;28;20044;-78
2021/12/26 01:58:25;;;;;;;72.22;16.10;;;;;;;1.25;100.00;94501.97;5099186;27;20063;-78
2021/12/26 02:01:08;;;;;;;72.47;16.52;;;;;;;1.20;100.00;94500.88;5119267;27;20497;-78
2021/12/26 02:03:35;;;;;;;64.50;16.52;;;;;;;1.31;100.00;94501.03;5092476;28;20043;-77
2021/12/26 02:06:01;;;;;;;63.72;15.93;;;;;;;1.26;100.00;94498.38;5108421;27;20051;-78
2021/12/26 02:08:26;;;;;;;58.80;15.48;;;;;;;1.37;100.00;94494.91;5107901;27;20081;-77
2021/12/26 02:10:52;;;;;;;66.50;15.63;;;;;;;1.33;100.00;94499.00;5105426;28;20047;-77
2021/12/26 02:13:18;;;;;;;54.28;15.38;;;;;;;1.32;100.00;94489.63;5095167;28;20042;-78
2021/12/26 02:15:43;;;;;;;60.58;15.52;;;;;;;1.30;100.00;94489.88;5109066;28;20050;-78
2021/12/26 02:18:10;;;;;;;53.67;14.13;;;;;;;1.30;100.00;94489.09;5106526;27;20032;-78
2021/12/26 02:20:59;;;;;;;51.85;14.38;;;;;;;1.32;100.00;94487.03;5089430;28;20047;-77
2021/12/26 02:23:52;;;;;;;49.63;14.75;;;;;;;1.29;100.00;94477.94;5079103;27;20036;-78
2021/12/26 02:28:58;;;;;;;38.05;12.82;;;;;;;1.42;100.00;94476.81;5099950;28;20451;-77
2021/12/26 02:31:23;;;;;;;54.35;15.38;;;;;;;1.27;100.00;94469.63;5104836;28;20043;-77
2021/12/26 02:33:49;;;;;;;47.22;13.18;;;;;;;1.26;100.00;94480.22;5093640;28;20394;-77
2021/12/26 02:36:15;;;;;;;40.10;12.93;;;;;;;1.40;100.00;94478.09;5101920;28;20040;-77
2021/12/26 02:38:40;;;;;;;52.08;14.65;;;;;;;1.26;100.00;94477.63;5111660;27;20035;-77
2021/12/26 02:41:06;;;;;;;56.35;13.98;;;;;;;1.23;100.00;94480.69;5114904;27;20426;-77
2021/12/26 02:43:33;;;;;;;60.88;14.68;;;;;;;1.21;100.00;94463.56;5089082;27;20043;-77
2021/12/26 02:46:04;;;;;;;56.88;14.80;;;;;;;1.21;100.00;94471.34;5119374;27;20063;-77
2021/12/26 02:48:30;;;;;;;56.83;15.55;;;;;;;1.15;100.00;94481.84;5095790;28;20498;-77
2021/12/26 02:50:57;;;;;;;56.70;14.38;;;;;;;1.09;100.00;94478.41;5100954;28;20047;-77
2021/12/26 02:53:23;;;;;;;68.53;15.48;;;;;;;1.11;100.00;94480.78;5109325;28;20031;-78
2021/12/26 02:55:54;;;;;;;55.78;14.75;;;;;;;1.19;100.00;94482.97;5084058;28;20119;-78
2021/12/26 02:58:21;;;;;;;54.67;15.15;;;;;;;1.26;100.00;94488.00;5080071;28;20040;-77
2021/12/26 03:00:59;;;;;;;59.10;15.80;;;;;;;1.19;100.00;94488.94;5114783;27;20036;-77
2021/12/26 03:03:25;;;;;;;53.72;13.07;;;;;;;1.15;100.00;94477.47;5114216;27;20039;-78
2021/12/26 03:06:01;;;;;;;47.58;14.13;;;;;;;1.15;100.00;94493.03;5097836;27;20110;-77
2021/12/26 03:08:27;;;;;;;51.17;14.70;;;;;;;1.16;100.00;94479.03;5089775;28;20066;-78
2021/12/26 03:10:53;;;;;;;50.15;13.35;;;;;;;1.28;100.00;94488.53;5100142;28;20497;-77
2021/12/26 03:13:20;;;;;;;45.70;13.30;;;;;;;1.18;100.00;94500.31;5106941;28;20110;-78
2021/12/26 03:15:46;;;;;;;56.97;13.55;;;;;;;1.10;100.00;94495.53;5103958;28;20493;-78
2021/12/26 03:18:12;;;;;;;50.90;13.20;;;;;;;1.14;100.00;94495.84;5096505;28;20207;-78
2021/12/26 03:20:42;;;;;;;43.97;14.32;;;;;;;1.12;100.00;94490.09;5084720;27;20115;-78
2021/12/26 03:23:10;;;;;;;52.63;14.07;;;;;;;1.02;100.00;94477.75;5110227;27;20043;-77
2021/12/26 03:25:37;;;;;;;62.30;14.60;;;;;;;1.11;100.00;94486.72;5116028;27;20067;-78
2021/12/26 03:28:04;;;;;;;67.20;14.75;;;;;;;1.13;100.00;94489.88;5095293;27;20468;-78
2021/12/26 03:30:31;;;;;;;51.30;14.85;;;;;;;1.07;100.00;94490.81;5089861;28;20066;-78
2021/12/26 03:32:59;;;;;;;47.78;14.85;;;;;;;1.14;100.00;94491.44;5104376;28;20544;-78
2021/12/26 03:35:26;;;;;;;54.72;15.73;;;;;;;0.99;100.00;94488.59;5101176;28;20504;-77
2021/12/26 03:37:53;;;;;;;53.92;15.50;;;;;;;0.96;100.00;94489.06;5089510;28;20733;-77
2021/12/26 03:40:18;;;;;;;114.03;17.48;;;;;;;0.95;100.00;94492.66;5092316;27;20047;-77
2021/12/26 03:42:44;;;;;;;61.95;15.38;;;;;;;0.93;100.00;94484.34;5110208;27;20040;-78
2021/12/26 03:45:10;;;;;;;56.17;15.52;;;;;;;1.10;100.00;94494.75;5107211;27;20477;-77
2021/12/26 03:47:37;;;;;;;78.13;17.17;;;;;;;0.95;100.00;94492.66;5092061;28;20031;-78
2021/12/26 03:50:04;;;;;;;72.32;17.10;;;;;;;0.96;100.00;94494.25;5106868;27;20126;-78
2021/12/26 03:52:30;;;;;;;69.70;16.17;;;;;;;0.93;100.00;94499.91;5130255;27;20039;-78
2021/12/26 03:54:56;;;;;;;66.90;16.02;;;;;;;1.04;100.00;94496.47;5094453;28;20039;-78
2021/12/26 03:57:21;;;;;;;65.97;16.67;;;;;;;1.20;100.00;94497.50;5097695;28;20043;-78
2021/12/26 03:59:47;;;;;;;63.63;16.58;;;;;;;1.01;100.00;94486.56;5109993;27;20067;-78
2021/12/26 04:02:15;;;;;;;69.22;17.85;;;;;;;1.03;100.00;94484.53;5114260;27;20051;-78
2021/12/26 04:04:42;;;;;;;73.88;15.82;;;;;;;1.01;100.00;94476.22;5107557;27;20043;-79
2021/12/26 04:07:08;;;;;;;63.75;15.07;;;;;;;1.02;100.00;94477.75;5108619;28;20043;-78
2021/12/26 04:09:34;;;;;;;68.55;14.77;;;;;;;1.04;100.00;94486.09;5102334;28;20039;-78
2021/12/26 04:12:00;;;;;;;59.97;14.48;;;;;;;0.98;100.00;94487.03;5104374;28;20046;-77
2021/12/26 04:14:26;;;;;;;62.17;13.77;;;;;;;1.05;100.00;94492.88;5093024;28;20036;-78
2021/12/26 04:16:52;;;;;;;59.35;14.48;;;;;;;1.11;100.00;94502.28;5089018;28;20058;-78
2021/12/26 04:19:18;;;;;;;55.53;14.70;;;;;;;1.13;100.00;94505.41;5098066;28;20036;-78
2021/12/26 04:21:44;;;;;;;46.83;13.50;;;;;;;1.18;100.00;94508.09;5109553;27;20115;-78
2021/12/26 04:24:09;;;;;;;40.22;12.95;;;;;;;1.23;100.00;94507.38;5119477;27;20047;-78
2021/12/26 04:26:35;;;;;;;44.85;13.10;;;;;;;1.16;100.00;94504.94;5097246;27;20044;-78
2021/12/26 04:29:00;;;;;;;41.72;13.13;;;;;;;1.22;100.00;94508.41;5103865;28;20043;-78
2021/12/26 04:31:26;;;;;;;41.45;11.75;;;;;;;1.06;100.00;94509.19;5097203;28;20036;-78
2021/12/26 04:33:52;;;;;;;48.72;12.65;;;;;;;1.03;100.00;94510.44;5092259;28;20048;-77
2021/12/26 04:36:18;;;;;;;47.20;12.73;;;;;;;1.08;100.00;94510.53;5106953;28;20093;-78
2021/12/26 04:38:44;;;;;;;47.17;12.85;;;;;;;1.27;100.00;94500.72;5104346;27;20058;-78
2021/12/26 04:41:11;;;;;;;37.85;12.20;;;;;;;1.08;100.00;94502.75;5114611;27;20494;-78
2021/12/26 04:43:37;;;;;;;40.40;11.68;;;;;;;1.02;100.00;94514.03;5092756;27;20035;-78
2021/12/26 04:46:05;;;;;;;42.90;12.88;;;;;;;1.06;100.00;94509.97;5125898;27;20078;-77
2021/12/26 04:48:36;;;;;;;42.70;11.75;;;;;;;1.06;100.00;94499.59;5100834;27;20071;-78
2021/12/26 04:51:03;;;;;;;42.47;11.73;;;;;;;1.07;100.00;94501.19;5112014;27;20044;-77
2021/12/26 04:53:28;;;;;;;37.00;11.88;;;;;;;1.06;100.00;94509.19;5097226;27;20036;-78
2021/12/26 04:55:54;;;;;;;32.15;11.13;;;;;;;0.98;100.00;94510.34;5092188;28;20044;-77
2021/12/26 04:58:20;;;;;;;31.05;11.32;;;;;;;1.14;100.00;94501.81;5092822;28;20043;-78
2021/12/26 05:00:45;;;;;;;29.92;11.27;;;;;;;1.12;100.00;94509.03;5118597;27;20436;-78
2021/12/26 05:03:11;;;;;;;30.65;10.60;;;;;;;1.24;100.00;94506.38;5093831;28;20485;-78
2021/12/26 05:05:37;;;;;;;35.30;11.38;;;;;;;0.91;100.00;94513.09;5107896;28;20134;-78
2021/12/26 05:08:04;;;;;;;33.22;10.45;;;;;;;1.08;100.00;94513.13;5098278;28;20040;-78
2021/12/26 05:10:30;;;;;;;33.83;10.80;;;;;;;0.92;100.00;94521.63;5117779;27;20040;-77
2021/12/26 05:12:58;;;;;;;37.25;11.43;;;;;;;0.92;100.00;94519.03;5114940;27;20092;-77
2021/12/26 05:15:23;;;;;;;31.60;9.85;;;;;;;0.81;100.00;94518.88;5101381;28;20062;-78
2021/12/26 05:17:50;;;;;;;30.33;9.88;;;;;;;0.81;100.00;94518.09;5099914;27;20036;-78
2021/12/26 05:20:18;;;;;;;35.85;11.02;;;;;;;0.86;100.00;94521.56;5118723;27;20036;-78
2021/12/26 05:22:46;;;;;;;32.15;10.27;;;;;;;0.86;100.00;94521.56;5105016;28;20110;-78
2021/12/26 05:25:12;;;;;;;32.88;10.07;;;;;;;1.01;100.00;94522.84;5107440;28;20639;-78
2021/12/26 05:27:38;;;;;;;27.27;10.40;;;;;;;0.88;100.00;94523.13;5094619;28;20044;-78
2021/12/26 05:30:07;;;;;;;30.60;9.85;;;;;;;0.89;100.00;94514.34;5117388;27;20412;-78
2021/12/26 05:32:33;;;;;;;31.80;10.63;;;;;;;0.90;100.00;94511.50;5105318;27;20092;-78
2021/12/26 05:34:59;;;;;;;34.08;10.20;;;;;;;1.05;100.00;94513.59;5091383;28;20051;-77
2021/12/26 05:37:24;;;;;;;33.17;11.23;;;;;;;1.14;100.00;94514.75;5097887;27;20508;-78
2021/12/26 05:39:50;;;;;;;25.83;9.13;;;;;;;1.23;100.00;94515.16;5117877;27;20047;-77
2021/12/26 05:42:16;;;;;;;27.73;9.90;;;;;;;1.21;100.00;94518.00;5110087;28;20046;-78
2021/12/26 05:44:46;;;;;;;28.38;9.65;;;;;;;1.17;100.00;94516.88;5105291;28;20070;-78
2021/12/26 05:47:12;;;;;;;25.70;9.23;;;;;;;1.00;100.00;94518.66;5102708;28;20220;-77
2021/12/26 05:49:39;;;;;;;28.42;9.80;;;;;;;0.95;100.00;94528.94;5092965;27;20040;-78
2021/12/26 05:52:05;;;;;;;27.17;10.35;;;;;;;0.95;100.00;94529.75;5109394;27;20039;-78
2021/12/26 05:54:30;;;;;;;28.42;10.02;;;;;;;0.78;100.00;94518.56;5091426;28;20143;-78
2021/12/26 05:56:56;;;;;;;28.10;9.82;;;;;;;0.68;100.00;94532.09;5101445;27;20047;-77
2021/12/26 05:59:22;;;;;;;23.85;9.80;;;;;;;0.84;100.00;94526.16;5115970;27;20365;-77
2021/12/26 06:01:48;;;;;;;30.92;10.55;;;;;;;0.60;100.00;94516.94;5096674;28;20130;-77
2021/12/26 06:04:13;;;;;;;30.98;10.63;;;;;;;0.83;100.00;94522.03;5091112;28;20047;-77
2021/12/26 06:06:39;;;;;;;33.47;11.23;;;;;;;0.89;100.00;94514.34;5090659;28;20036;-77
2021/12/26 06:09:05;;;;;;;29.60;10.05;;;;;;;0.88;100.00;94518.75;5099301;28;20044;-77
2021/12/26 06:11:31;;;;;;;32.00;10.68;;;;;;;0.75;100.00;94514.63;5116968;27;20039;-77
2021/12/26 06:13:56;;;;;;;26.55;11.05;;;;;;;0.81;100.00;94524.03;5123316;27;20091;-78
2021/12/26 06:16:22;;;;;;;30.90;10.75;;;;;;;0.73;100.00;94516.63;5112794;27;20344;-78
2021/12/26 06:18:48;;;;;;;27.45;10.73;;;;;;;0.68;100.00;94526.94;5114390;27;20088;-77
2021/12/26 06:21:13;;;;;;;35.38;10.90;;;;;;;0.67;100.00;94522.75;5091528;28;20065;-77
2021/12/26 06:23:39;;;;;;;29.23;10.45;;;;;;;0.92;100.00;94529.41;5110369;28;20096;-77
2021/12/26 06:26:05;;;;;;;33.38;11.57;;;;;;;0.83;100.00;94527.22;5110430;28;20464;-77
2021/12/26 06:28:30;;;;;;;38.47;12.25;;;;;;;0.90;100.00;94534.03;5095092;28;20036;-77
2021/12/26 06:30:56;;;;;;;37.92;11.98;;;;;;;0.84;100.00;94528.75;5105460;27;20114;-77
2021/12/26 06:33:21;;;;;;;33.15;11.80;;;;;;;0.88;100.00;94533.47;5111704;27;20697;-77
2021/12/26 06:35:49;;;;;;;34.90;13.20;;;;;;;0.72;100.00;94525.44;5105803;28;20036;-77
2021/12/26 06:38:15;;;;;;;32.58;12.02;;;;;;;0.69;100.00;94536.28;5104346;27;20494;-78
2021/12/26 06:40:41;;;;;;;35.45;11.65;;;;;;;0.57;100.00;94538.09;5108040;27;20040;-79
2021/12/26 06:43:08;;;;;;;37.47;11.48;;;;;;;0.69;100.00;94531.88;5101209;28;20524;-77
2021/12/26 06:45:33;;;;;;;33.08;12.18;;;;;;;0.64;100.00;94533.56;5089700;28;20043;-77
2021/12/26 06:48:02;;;;;;;27.40;10.93;;;;;;;0.70;100.00;94537.81;5105250;28;20115;-77
2021/12/26 06:50:28;;;;;;;28.02;10.77;;;;;;;0.71;100.00;94534.22;5110038;27;20043;-77
2021/12/26 06:52:53;;;;;;;31.30;10.70;;;;;;;0.70;100.00;94543.00;5116202;27;20051;-77
2021/12/26 06:55:20;;;;;;;27.05;10.27;;;;;;;0.61;100.00;94541.81;5098336;28;20047;-78
2021/12/26 06:57:46;;;;;;;27.77;10.27;;;;;;;0.81;100.00;94544.00;5101285;28;20093;-77
2021/12/26 07:00:14;;;;;;;33.90;10.68;;;;;;;0.85;100.00;94545.88;5106777;28;20032;-77
2021/12/26 07:02:40;;;;;;;30.90;10.63;;;;;;;0.91;100.00;94548.56;5105001;27;20047;-77
2021/12/26 07:05:06;;;;;;;29.02;10.82;;;;;;;0.59;100.00;94543.81;5085047;28;20051;-77
2021/12/26 07:07:32;;;;;;;34.53;10.43;;;;;;;0.66;100.00;94552.25;5092759;28;20238;-77
2021/12/26 07:09:59;;;;;;;31.73;11.27;;;;;;;0.44;100.00;94550.28;5100435;27;20036;-78
2021/12/26 07:12:24;;;;;;;34.38;11.65;;;;;;;0.58;100.00;94556.00;5093830;28;20050;-78
2021/12/26 07:14:50;;;;;;;40.53;12.32;;;;;;;0.82;100.00;94551.53;5099858;28;20043;-78
2021/12/26 07:17:15;;;;;;;36.60;11.13;;;;;;;0.81;100.00;94555.13;5096814;28;20518;-77
2021/12/26 07:19:41;;;;;;;27.35;10.15;;;;;;;0.72;100.00;94551.34;5098426;28;20039;-77
2021/12/26 07:22:08;;;;;;;31.13;11.13;;;;;;;0.75;100.00;94556.06;5089627;28;20050;-78
2021/12/26 07:24:34;;;;;;;28.73;10.63;;;;;;;0.84;100.00;94565.03;5114126;27;20140;-77
2021/12/26 07:27:00;;;;;;;28.27;10.40;;;;;;;0.94;100.00;94563.66;5103623;28;20044;-79
2021/12/26 07:29:25;;;;;;;29.00;10.75;;;;;;;0.80;100.00;94569.09;5107986;27;20505;-79
2021/12/26 07:31:51;;;;;;;28.70;10.25;;;;;;;0.76;100.00;94573.19;5104911;27;20447;-77
2021/12/26 07:34:17;;;;;;;30.58;11.10;;;;;;;0.76;100.00;94577.56;5111680;27;20463;-77
2021/12/26 07:36:42;;;;;;;29.23;11.25;;;;;;;0.85;100.00;94576.97;5095443;28;20048;-77
2021/12/26 07:39:08;;;;;;;28.35;10.32;;;;;;;0.66;100.00;94578.13;5102787;28;20063;-77
2021/12/26 07:41:34;;;;;;;31.00;10.90;;;;;;;0.64;100.00;94577.59;5106040;28;20378;-77
2021/12/26 07:44:00;;;;;;;25.10;9.88;;;;;;;0.78;100.00;94588.50;5097773;28;20047;-79
2021/12/26 07:46:25;;;;;;;27.58;10.65;;;;;;;0.63;100.00;94594.16;5098867;28;20059;-80
2021/12/26 07:48:52;;;;;;;29.13;10.15;;;;;;;0.63;100.00;94583.78;5100622;28;20055;-79
2021/12/26 07:51:19;;;;;;;26.80;9.60;;;;;;;0.85;100.00;94582.16;5110206;28;20043;-79
2021/12/26 07:53:46;;;;;;;25.00;9.52;;;;;;;0.90;100.00;94585.84;5114327;28;20047;-80
2021/12/26 07:56:14;;;;;;;24.27;9.27;;;;;;;0.85;100.00;94587.31;5094566;28;20073;-81
2021/12/26 07:58:39;;;;;;;26.65;9.32;;;;;;;0.63;100.00;94596.72;5094807;28;20493;-80
2021/12/26 08:01:05;;;;;;;26.67;9.45;;;;;;;0.86;100.00;94588.91;5086170;28;20168;-80
2021/12/26 08:03:34;;;;;;;27.50;9.88;;;;;;;0.60;100.00;94584.25;5097262;27;20040;-81
2021/12/26 08:06:00;;;;;;;27.05;9.85;;;;;;;0.85;100.00;94592.50;5097469;27;20050;-80
2021/12/26 08:08:25;;;;;;;26.10;9.57;;;;;;;0.97;100.00;94594.28;5099930;27;20483;-79
2021/12/26 08:10:51;;;;;;;25.65;10.82;;;;;;;0.73;100.00;94598.75;5092932;28;20050;-80
2021/12/26 08:13:17;;;;;;;23.33;9.30;;;;;;;0.66;100.00;94593.69;5092795;28;20036;-80
2021/12/26 08:15:42;;;;;;;26.33;9.23;;;;;;;0.65;100.00;94594.72;5095049;28;20042;-80
2021/12/26 08:18:08;;;;;;;25.75;9.90;;;;;;;0.82;100.00;94595.56;5115963;27;20089;-80
2021/12/26 08:20:33;;;;;;;23.60;9.15;;;;;;;0.99;100.00;94605.19;5110325;27;20119;-78
2021/12/26 08:23:00;;;;;;;25.00;9.63;;;;;;;0.96;100.00;94603.06;5113886;27;20032;-79
2021/12/26 08:25:25;;;;;;;26.88;10.23;;;;;;;0.88;100.00;94595.66;5109018;28;20040;-79
2021/12/26 08:27:51;;;;;;;24.08;8.77;;;;;;;0.82;100.00;94592.97;5106177;27;20039;-82
2021/12/26 08:30:17;;;;;;;24.40;8.93;;;;;;;0.91;100.00;94605.56;5106723;28;20114;-81
2021/12/26 08:32:43;;;;;;;21.88;9.65;;;;;;;1.02;100.00;94602.13;5090436;28;20500;-78
2021/12/26 08:35:09;;;;;;;22.52;9.00;;;;;;;1.16;100.00;94608.59;5098228;28;20513;-79
2021/12/26 08:37:37;;;;;;;23.33;9.52;;;;;;;1.10;100.00;94614.72;5104782;28;20054;-78
2021/12/26 08:40:04;;;;;;;21.80;8.30;;;;;;;1.05;100.00;94604.28;5102451;28;20043;-78
2021/12/26 08:42:30;;;;;;;21.13;8.77;;;;;;;1.09;100.00;94607.19;5096865;28;20073;-78
2021/12/26 08:44:58;;;;;;;20.40;8.38;;;;;;;1.13;100.00;94609.06;5111654;28;20530;-78
2021/12/26 08:47:23;;;;;;;23.88;9.32;;;;;;;1.11;100.00;94611.13;5086268;28;20040;-78
2021/12/26 08:49:49;;;;;;;18.40;7.90;;;;;;;1.05;100.00;94606.88;5111050;28;20042;-77
2021/12/26 08:52:14;;;;;;;20.60;8.63;;;;;;;1.07;100.00;94615.19;5090640;28;20043;-79
2021/12/26 08:54:40;;;;;;;22.08;8.65;;;;;;;1.01;100.00;94611.72;5090219;28;20040;-80
2021/12/26 08:57:07;;;;;;;22.95;9.02;;;;;;;1.03;100.00;94614.06;5078749;28;20039;-78
2021/12/26 08:59:33;;;;;;;21.17;8.88;;;;;;;1.11;100.00;94615.53;5103918;28;20063;-79
2021/12/26 09:02:02;;;;;;;19.67;9.35;;;;;;;1.14;100.00;94618.44;5080782;28;20657;-79
2021/12/26 09:04:28;;;;;;;21.45;8.82;;;;;;;1.08;100.00;94619.34;5083857;28;20036;-78
2021/12/26 09:06:54;;;;;;;21.42;8.40;;;;;;;1.07;100.00;94620.38;5104884;28;20043;-79
2021/12/26 09:09:20;;;;;;;24.67;10.00;;;;;;;1.05;100.00;94622.41;5110489;28;20444;-78
2021/12/26 09:11:46;;;;;;;22.58;9.38;;;;;;;1.10;100.00;94619.13;5104248;28;20032;-77
2021/12/26 09:14:12;;;;;;;21.67;9.27;;;;;;;1.09;100.00;94628.69;5090474;28;20047;-78
2021/12/26 09:16:37;;;;;;;22.95;9.10;;;;;;;0.93;100.00;94629.44;5092481;28;20040;-78
2021/12/26 09:19:04;;;;;;;22.40;9.38;;;;;;;1.01;100.00;94636.84;5104993;28;20069;-77
2021/12/26 09:21:30;;;;;;;28.35;10.35;;;;;;;0.81;100.00;94632.06;5107245;28;20043;-79
2021/12/26 09:23:56;;;;;;;28.25;10.45;;;;;;;0.74;100.00;94627.00;5107574;28;20060;-77
2021/12/26 09:26:21;;;;;;;26.08;9.68;;;;;;;0.88;100.00;94626.72;5112363;28;20126;-78
2021/12/26 09:28:50;;;;;;;25.58;10.50;;;;;;;1.12;100.00;94623.06;5095362;28;20089;-79
2021/12/26 09:31:17;;;;;;;25.73;10.40;;;;;;;1.18;100.00;94632.50;5089929;28;20036;-79
2021/12/26 09:33:42;;;;;;;24.58;10.25;;;;;;;1.28;100.00;94620.72;5111529;28;20047;-79
2021/12/26 09:36:08;;;;;;;22.85;10.07;;;;;;;1.33;100.00;94623.41;5106766;27;20511;-78
2021/12/26 09:38:34;;;;;;;22.23;9.13;;;;;;;1.45;100.00;94631.94;5106410;28;20085;-80
2021/12/26 09:41:00;;;;;;;28.80;10.20;;;;;;;1.38;100.00;94626.13;5115261;28;20067;-77
2021/12/26 09:43:26;;;;;;;24.65;9.88;;;;;;;1.42;100.00;94622.00;5112567;28;20042;-79
2021/12/26 09:45:52;;;;;;;23.50;8.95;;;;;;;1.39;100.00;94627.66;5112346;28;20048;-78
2021/12/26 09:48:18;;;;;;;25.20;10.15;;;;;;;1.58;100.00;94630.06;5101017;28;20123;-79
2021/12/26 09:50:45;;;;;;;23.70;10.15;;;;;;;1.48;100.00;94621.09;5104469;28;20509;-79
2021/12/26 09:53:11;;;;;;;25.17;10.00;;;;;;;1.30;100.00;94618.69;5104853;28;20057;-79
2021/12/26 09:55:36;;;;;;;21.73;9.32;;;;;;;1.49;100.00;94625.25;5111762;28;20032;-79
2021/12/26 09:58:02;;;;;;;23.50;9.70;;;;;;;1.59;100.00;94613.47;5113701;28;20199;-80
2021/12/26 10:00:30;;;;;;;25.20;9.48;;;;;;;1.59;100.00;94618.66;5107725;28;20031;-78
2021/12/26 10:03:17;;;;;;;24.92;9.80;;;;;;;1.76;100.00;94606.50;5115871;28;20046;-78
2021/12/26 10:06:06;;;;;;;20.15;9.10;;;;;;;1.74;100.00;94603.38;5097169;28;20047;-79
2021/12/26 10:08:36;;;;;;;22.27;9.35;;;;;;;1.76;100.00;94603.91;5107389;28;20031;-78
2021/12/26 10:11:16;;;;;;;22.02;9.18;;;;;;;1.90;100.00;94602.56;5096617;28;20070;-78
2021/12/26 10:13:46;;;;;;;22.67;9.95;;;;;;;1.94;100.00;94591.69;5097221;28;20048;-79
2021/12/26 10:16:14;;;;;;;27.33;10.18;;;;;;;2.06;100.00;94595.00;5106067;28;20028;-79
2021/12/26 10:18:41;;;;;;;23.13;9.68;;;;;;;1.89;100.00;94595.78;5078554;28;20066;-79
2021/12/26 10:21:25;;;;;;;26.85;10.23;;;;;;;1.92;100.00;94598.94;5088335;28;20044;-80
2021/12/26 10:23:53;;;;;;;26.15;10.13;;;;;;;1.85;100.00;94599.91;5117063;28;20040;-81
2021/12/26 10:26:40;;;;;;;24.02;10.02;;;;;;;1.78;100.00;94599.28;5108345;28;20044;-78
2021/12/26 10:29:11;;;;;;;25.48;9.73;;;;;;;1.94;100.00;94597.69;5103188;28;20459;-81
2021/12/26 10:31:43;;;;;;;21.92;9.48;;;;;;;2.15;100.00;94598.75;5075883;28;20044;-81
2021/12/26 10:34:27;;;;;;;19.10;8.48;;;;;;;2.34;100.00;94606.28;5108611;28;20043;-82
2021/12/26 10:36:55;;;;;;;19.45;8.52;;;;;;;2.31;100.00;94597.16;5093090;28;20044;-81
2021/12/26 10:39:25;;;;;;;19.52;8.55;;;;;;;2.35;100.00;94600.06;5101332;28;20036;-77
2021/12/26 10:41:54;;;;;;;23.73;9.52;;;;;;;2.24;100.00;94602.53;5113764;28;20040;-79
2021/12/26 10:44:25;;;;;;;23.75;8.40;;;;;;;2.32;100.00;94603.94;5115201;28;20680;-79
2021/12/26 10:46:54;;;;;;;20.55;8.85;;;;;;;2.21;100.00;94592.63;5108700;28;20051;-80
2021/12/26 10:49:23;;;;;;;25.77;8.63;;;;;;;2.42;100.00;94598.88;5104622;28;20042;-80
2021/12/26 10:51:49;;;;;;;19.77;8.70;;;;;;;2.50;100.00;94595.09;5102110;28;20578;-79
2021/12/26 10:54:16;;;;;;;19.30;8.20;;;;;;;2.54;100.00;94600.56;5111368;28;20035;-79
2021/12/26 10:57:00;;;;;;;19.85;8.35;;;;;;;2.43;100.00;94594.47;5092894;27;20043;-79
2021/12/26 10:59:26;;;;;;;24.60;9.27;;;;;;;2.43;100.00;94592.66;5097504;28;20039;-79
2021/12/26 11:01:54;;;;;;;23.15;8.85;;;;;;;2.37;100.00;94598.00;5114036;28;20638;-80
2021/12/26 11:04:19;;;;;;;24.58;9.60;;;;;;;2.48;100.00;94591.94;5095035;28;20142;-78
2021/12/26 11:07:01;;;;;;;20.80;8.68;;;;;;;2.67;100.00;94594.22;5090293;28;20048;-78
2021/12/26 11:09:27;;;;;;;19.88;9.07;;;;;;;2.79;100.00;94592.31;5109112;28;20047;-78
2021/12/26 11:12:07;;;;;;;21.98;8.85;;;;;;;2.78;100.00;94593.31;5106639;27;20047;-80
2021/12/26 11:14:53;;;;;;;20.10;8.50;;;;;;;2.88;100.00;94579.66;5118907;27;20048;-79
2021/12/26 11:17:34;;;;;;;27.48;8.93;;;;;;;2.82;100.00;94585.84;5103210;27;20039;-79
2021/12/26 11:20:00;;;;;;;20.98;9.02;;;;;;;2.93;100.00;94575.31;5103398;27;20513;-79
2021/12/26 11:22:27;;;;;;;19.23;9.05;;;;;;;3.07;100.00;94583.50;5088145;27;20514;-79